sensor_id;sensor_type;location;lat;lon;timestamp;P1;durP1;ratioP1;P2;durP2;ratioP2
21170;SDS011;10743;52.160;20.910;2023-09-19T00:00:44;18.38;;;8.82;;
21170;SDS011;10743;52.160;20.910;2023-09-19T00:03:13;20.73;;;8.45;;
21170;SDS011;10743;52.160;20.910;2023-09-19T00:05:41;21.00;;;9.63;;
21170;SDS011;10743;52.160;20.910;2023-09-19T00:08:12;16.05;;;8.30;;
21170;SDS011;10743;52.160;20.910;2023-09-19T00:10:40;17.33;;;8.60;;
21170;SDS011;10743;52.160;20.910;2023-09-19T00:13:08;18.30;;;9.27;;
21170;SDS011;10743;52.160;20.910;2023-09-19T00:15:42;17.55;;;9.20;;
21170;SDS011;10743;52.160;20.910;2023-09-19T00:18:17;18.50;;;8.70;;
21170;SDS011;10743;52.160;20.910;2023-09-19T00:20:47;19.13;;;9.00;;
21170;SDS011;10743;52.160;20.910;2023-09-19T00:23:16;18.80;;;8.45;;
21170;SDS011;10743;52.160;20.910;2023-09-19T00:25:43;18.33;;;9.45;;
21170;SDS011;10743;52.160;20.910;2023-09-19T00:28:12;15.65;;;8.88;;
21170;SDS011;10743;52.160;20.910;2023-09-19T00:30:39;17.23;;;8.93;;
21170;SDS011;10743;52.160;20.910;2023-09-19T00:33:10;20.65;;;9.48;;
21170;SDS011;10743;52.160;20.910;2023-09-19T00:35:47;17.67;;;8.82;;
21170;SDS011;10743;52.160;20.910;2023-09-19T00:38:18;21.48;;;8.93;;
21170;SDS011;10743;52.160;20.910;2023-09-19T00:40:49;20.20;;;9.05;;
21170;SDS011;10743;52.160;20.910;2023-09-19T00:43:20;17.98;;;8.80;;
21170;SDS011;10743;52.160;20.910;2023-09-19T00:45:52;18.88;;;8.52;;
21170;SDS011;10743;52.160;20.910;2023-09-19T00:48:21;16.90;;;8.77;;
21170;SDS011;10743;52.160;20.910;2023-09-19T00:50:49;21.73;;;9.00;;
21170;SDS011;10743;52.160;20.910;2023-09-19T00:53:17;19.38;;;9.48;;
21170;SDS011;10743;52.160;20.910;2023-09-19T00:55:47;21.20;;;9.02;;
21170;SDS011;10743;52.160;20.910;2023-09-19T00:58:16;18.25;;;8.93;;
21170;SDS011;10743;52.160;20.910;2023-09-19T01:00:45;17.80;;;8.98;;
21170;SDS011;10743;52.160;20.910;2023-09-19T01:03:15;19.52;;;9.82;;
21170;SDS011;10743;52.160;20.910;2023-09-19T01:05:42;17.13;;;8.80;;
21170;SDS011;10743;52.160;20.910;2023-09-19T01:08:10;18.83;;;9.68;;
21170;SDS011;10743;52.160;20.910;2023-09-19T01:10:39;18.77;;;8.90;;
21170;SDS011;10743;52.160;20.910;2023-09-19T01:22:21;17.88;;;9.27;;
21170;SDS011;10743;52.160;20.910;2023-09-19T01:31:24;17.98;;;9.35;;
21170;SDS011;10743;52.160;20.910;2023-09-19T01:33:56;19.98;;;9.20;;
21170;SDS011;10743;52.160;20.910;2023-09-19T01:36:28;21.27;;;9.77;;
21170;SDS011;10743;52.160;20.910;2023-09-19T01:39:00;19.67;;;9.43;;
21170;SDS011;10743;52.160;20.910;2023-09-19T01:41:47;18.13;;;9.32;;
21170;SDS011;10743;52.160;20.910;2023-09-19T01:51:14;20.83;;;9.70;;
21170;SDS011;10743;52.160;20.910;2023-09-19T01:54:09;22.80;;;10.20;;
21170;SDS011;10743;52.160;20.910;2023-09-19T01:56:49;15.70;;;8.88;;
21170;SDS011;10743;52.160;20.910;2023-09-19T01:59:28;21.83;;;9.82;;
21170;SDS011;10743;52.160;20.910;2023-09-19T02:02:15;17.20;;;9.05;;
21170;SDS011;10743;52.160;20.910;2023-09-19T02:04:44;20.48;;;9.70;;
21170;SDS011;10743;52.160;20.910;2023-09-19T02:07:11;19.38;;;8.90;;
21170;SDS011;10743;52.160;20.910;2023-09-19T02:09:38;23.30;;;9.32;;
21170;SDS011;10743;52.160;20.910;2023-09-19T02:12:06;21.10;;;10.02;;
21170;SDS011;10743;52.160;20.910;2023-09-19T02:14:33;22.67;;;9.38;;
21170;SDS011;10743;52.160;20.910;2023-09-19T02:17:02;20.58;;;9.35;;
21170;SDS011;10743;52.160;20.910;2023-09-19T02:19:33;22.92;;;9.73;;
21170;SDS011;10743;52.160;20.910;2023-09-19T02:22:00;21.98;;;9.68;;
21170;SDS011;10743;52.160;20.910;2023-09-19T02:24:34;18.85;;;10.13;;
21170;SDS011;10743;52.160;20.910;2023-09-19T02:27:02;19.98;;;9.45;;
21170;SDS011;10743;52.160;20.910;2023-09-19T02:29:33;21.17;;;9.82;;
21170;SDS011;10743;52.160;20.910;2023-09-19T02:32:01;19.83;;;9.82;;
21170;SDS011;10743;52.160;20.910;2023-09-19T02:34:30;24.70;;;9.90;;
21170;SDS011;10743;52.160;20.910;2023-09-19T02:36:59;18.63;;;9.05;;
21170;SDS011;10743;52.160;20.910;2023-09-19T02:39:26;20.48;;;9.88;;
21170;SDS011;10743;52.160;20.910;2023-09-19T02:41:54;19.17;;;9.57;;
21170;SDS011;10743;52.160;20.910;2023-09-19T02:44:21;19.50;;;9.02;;
21170;SDS011;10743;52.160;20.910;2023-09-19T02:46:50;19.02;;;9.20;;
21170;SDS011;10743;52.160;20.910;2023-09-19T02:49:17;18.80;;;9.98;;
21170;SDS011;10743;52.160;20.910;2023-09-19T02:51:44;19.58;;;9.48;;
21170;SDS011;10743;52.160;20.910;2023-09-19T02:54:13;20.88;;;9.68;;
21170;SDS011;10743;52.160;20.910;2023-09-19T02:56:42;22.42;;;10.02;;
21170;SDS011;10743;52.160;20.910;2023-09-19T02:59:09;21.40;;;9.38;;
21170;SDS011;10743;52.160;20.910;2023-09-19T03:01:37;18.63;;;9.45;;
21170;SDS011;10743;52.160;20.910;2023-09-19T03:04:05;16.70;;;8.95;;
21170;SDS011;10743;52.160;20.910;2023-09-19T03:06:37;22.65;;;9.50;;
21170;SDS011;10743;52.160;20.910;2023-09-19T03:09:07;18.17;;;9.23;;
21170;SDS011;10743;52.160;20.910;2023-09-19T03:11:39;22.75;;;9.98;;
21170;SDS011;10743;52.160;20.910;2023-09-19T03:14:08;17.02;;;9.02;;
21170;SDS011;10743;52.160;20.910;2023-09-19T03:16:36;21.83;;;9.82;;
21170;SDS011;10743;52.160;20.910;2023-09-19T03:19:05;17.98;;;9.23;;
21170;SDS011;10743;52.160;20.910;2023-09-19T03:21:33;26.02;;;10.20;;
21170;SDS011;10743;52.160;20.910;2023-09-19T03:24:01;21.40;;;9.75;;
21170;SDS011;10743;52.160;20.910;2023-09-19T03:26:29;21.77;;;9.40;;
21170;SDS011;10743;52.160;20.910;2023-09-19T03:28:56;20.85;;;10.00;;
21170;SDS011;10743;52.160;20.910;2023-09-19T03:31:23;17.38;;;9.65;;
21170;SDS011;10743;52.160;20.910;2023-09-19T03:33:50;20.15;;;9.32;;
21170;SDS011;10743;52.160;20.910;2023-09-19T03:36:17;21.13;;;10.07;;
21170;SDS011;10743;52.160;20.910;2023-09-19T03:38:45;23.02;;;9.85;;
21170;SDS011;10743;52.160;20.910;2023-09-19T03:41:12;16.05;;;9.18;;
21170;SDS011;10743;52.160;20.910;2023-09-19T03:43:41;20.02;;;10.13;;
21170;SDS011;10743;52.160;20.910;2023-09-19T03:46:09;18.52;;;9.52;;
21170;SDS011;10743;52.160;20.910;2023-09-19T03:48:38;21.27;;;9.63;;
21170;SDS011;10743;52.160;20.910;2023-09-19T03:51:05;21.17;;;10.10;;
21170;SDS011;10743;52.160;20.910;2023-09-19T03:53:32;19.20;;;9.38;;
21170;SDS011;10743;52.160;20.910;2023-09-19T03:55:59;21.92;;;9.52;;
21170;SDS011;10743;52.160;20.910;2023-09-19T03:58:29;21.52;;;9.70;;
21170;SDS011;10743;52.160;20.910;2023-09-19T04:00:56;17.02;;;9.18;;
21170;SDS011;10743;52.160;20.910;2023-09-19T04:03:26;24.02;;;10.13;;
21170;SDS011;10743;52.160;20.910;2023-09-19T04:06:01;19.08;;;9.23;;
21170;SDS011;10743;52.160;20.910;2023-09-19T04:08:28;20.92;;;9.90;;
21170;SDS011;10743;52.160;20.910;2023-09-19T04:10:56;20.20;;;9.73;;
21170;SDS011;10743;52.160;20.910;2023-09-19T04:13:23;22.65;;;9.45;;
21170;SDS011;10743;52.160;20.910;2023-09-19T04:15:50;18.25;;;9.07;;
21170;SDS011;10743;52.160;20.910;2023-09-19T04:18:17;20.85;;;9.45;;
21170;SDS011;10743;52.160;20.910;2023-09-19T04:20:47;21.60;;;10.50;;
21170;SDS011;10743;52.160;20.910;2023-09-19T04:23:18;22.83;;;9.80;;
21170;SDS011;10743;52.160;20.910;2023-09-19T04:25:49;25.15;;;9.65;;
21170;SDS011;10743;52.160;20.910;2023-09-19T04:28:17;19.00;;;9.40;;
21170;SDS011;10743;52.160;20.910;2023-09-19T04:30:44;23.08;;;9.73;;
21170;SDS011;10743;52.160;20.910;2023-09-19T04:33:11;20.50;;;9.70;;
21170;SDS011;10743;52.160;20.910;2023-09-19T04:35:40;19.05;;;8.77;;
21170;SDS011;10743;52.160;20.910;2023-09-19T04:38:09;17.33;;;9.57;;
21170;SDS011;10743;52.160;20.910;2023-09-19T04:40:36;24.08;;;10.23;;
21170;SDS011;10743;52.160;20.910;2023-09-19T04:43:06;19.30;;;9.95;;
21170;SDS011;10743;52.160;20.910;2023-09-19T04:45:34;23.08;;;10.02;;
21170;SDS011;10743;52.160;20.910;2023-09-19T04:48:01;21.23;;;9.70;;
21170;SDS011;10743;52.160;20.910;2023-09-19T04:50:29;22.25;;;9.60;;
21170;SDS011;10743;52.160;20.910;2023-09-19T04:52:56;22.70;;;10.07;;
21170;SDS011;10743;52.160;20.910;2023-09-19T04:55:23;20.45;;;9.65;;
21170;SDS011;10743;52.160;20.910;2023-09-19T04:57:50;21.65;;;9.55;;
21170;SDS011;10743;52.160;20.910;2023-09-19T05:00:20;19.48;;;9.63;;
21170;SDS011;10743;52.160;20.910;2023-09-19T05:02:51;21.95;;;9.93;;
21170;SDS011;10743;52.160;20.910;2023-09-19T05:05:23;17.98;;;9.43;;
21170;SDS011;10743;52.160;20.910;2023-09-19T05:07:51;18.98;;;9.50;;
21170;SDS011;10743;52.160;20.910;2023-09-19T05:10:22;20.52;;;9.23;;
21170;SDS011;10743;52.160;20.910;2023-09-19T05:12:52;22.15;;;10.07;;
21170;SDS011;10743;52.160;20.910;2023-09-19T05:15:20;20.33;;;9.60;;
21170;SDS011;10743;52.160;20.910;2023-09-19T05:17:51;17.20;;;9.20;;
21170;SDS011;10743;52.160;20.910;2023-09-19T05:20:23;16.50;;;8.77;;
21170;SDS011;10743;52.160;20.910;2023-09-19T05:23:02;19.83;;;9.70;;
21170;SDS011;10743;52.160;20.910;2023-09-19T05:25:39;18.17;;;9.10;;
21170;SDS011;10743;52.160;20.910;2023-09-19T05:28:07;20.50;;;10.18;;
21170;SDS011;10743;52.160;20.910;2023-09-19T05:30:38;19.73;;;8.90;;
21170;SDS011;10743;52.160;20.910;2023-09-19T05:33:06;16.95;;;9.45;;
21170;SDS011;10743;52.160;20.910;2023-09-19T05:35:34;17.08;;;8.77;;
21170;SDS011;10743;52.160;20.910;2023-09-19T05:38:06;25.52;;;8.95;;
21170;SDS011;10743;52.160;20.910;2023-09-19T05:40:35;20.75;;;8.88;;
21170;SDS011;10743;52.160;20.910;2023-09-19T05:43:04;18.40;;;9.27;;
21170;SDS011;10743;52.160;20.910;2023-09-19T05:45:32;24.75;;;10.00;;
21170;SDS011;10743;52.160;20.910;2023-09-19T05:48:06;20.38;;;9.48;;
21170;SDS011;10743;52.160;20.910;2023-09-19T05:50:40;18.45;;;8.55;;
21170;SDS011;10743;52.160;20.910;2023-09-19T05:53:07;16.60;;;8.68;;
21170;SDS011;10743;52.160;20.910;2023-09-19T05:55:41;20.20;;;9.13;;
21170;SDS011;10743;52.160;20.910;2023-09-19T05:58:08;18.20;;;8.25;;
21170;SDS011;10743;52.160;20.910;2023-09-19T06:00:36;17.60;;;8.93;;
21170;SDS011;10743;52.160;20.910;2023-09-19T06:03:05;17.17;;;8.35;;
21170;SDS011;10743;52.160;20.910;2023-09-19T06:05:33;22.05;;;9.05;;
21170;SDS011;10743;52.160;20.910;2023-09-19T06:08:00;19.50;;;9.02;;
21170;SDS011;10743;52.160;20.910;2023-09-19T06:10:27;23.60;;;9.80;;
21170;SDS011;10743;52.160;20.910;2023-09-19T06:12:55;19.27;;;9.43;;
21170;SDS011;10743;52.160;20.910;2023-09-19T06:15:24;17.48;;;8.75;;
21170;SDS011;10743;52.160;20.910;2023-09-19T06:17:53;16.30;;;8.95;;
21170;SDS011;10743;52.160;20.910;2023-09-19T06:20:22;20.02;;;8.73;;
21170;SDS011;10743;52.160;20.910;2023-09-19T06:22:51;18.15;;;9.00;;
21170;SDS011;10743;52.160;20.910;2023-09-19T06:25:20;28.02;;;9.85;;
21170;SDS011;10743;52.160;20.910;2023-09-19T06:27:49;27.02;;;10.10;;
21170;SDS011;10743;52.160;20.910;2023-09-19T06:30:20;27.20;;;10.00;;
21170;SDS011;10743;52.160;20.910;2023-09-19T06:32:57;25.23;;;9.90;;
21170;SDS011;10743;52.160;20.910;2023-09-19T06:35:26;25.13;;;10.15;;
21170;SDS011;10743;52.160;20.910;2023-09-19T06:37:54;24.83;;;9.52;;
21170;SDS011;10743;52.160;20.910;2023-09-19T06:40:24;23.30;;;9.75;;
21170;SDS011;10743;52.160;20.910;2023-09-19T06:42:52;21.55;;;9.93;;
21170;SDS011;10743;52.160;20.910;2023-09-19T06:45:20;22.23;;;9.32;;
21170;SDS011;10743;52.160;20.910;2023-09-19T06:47:49;22.45;;;9.02;;
21170;SDS011;10743;52.160;20.910;2023-09-19T06:50:18;26.02;;;9.10;;
21170;SDS011;10743;52.160;20.910;2023-09-19T06:52:50;25.48;;;10.48;;
21170;SDS011;10743;52.160;20.910;2023-09-19T06:55:19;24.85;;;10.45;;
21170;SDS011;10743;52.160;20.910;2023-09-19T06:57:47;28.83;;;10.05;;
21170;SDS011;10743;52.160;20.910;2023-09-19T07:00:15;33.90;;;10.43;;
21170;SDS011;10743;52.160;20.910;2023-09-19T07:05:31;25.52;;;9.68;;
21170;SDS011;10743;52.160;20.910;2023-09-19T07:07:59;32.05;;;10.68;;
21170;SDS011;10743;52.160;20.910;2023-09-19T07:10:27;26.00;;;10.10;;
21170;SDS011;10743;52.160;20.910;2023-09-19T07:12:58;25.58;;;9.63;;
21170;SDS011;10743;52.160;20.910;2023-09-19T07:15:27;27.80;;;9.85;;
21170;SDS011;10743;52.160;20.910;2023-09-19T07:17:57;27.00;;;9.77;;
21170;SDS011;10743;52.160;20.910;2023-09-19T07:20:24;24.38;;;9.55;;
21170;SDS011;10743;52.160;20.910;2023-09-19T07:22:56;25.27;;;9.63;;
21170;SDS011;10743;52.160;20.910;2023-09-19T07:25:26;24.27;;;9.80;;
21170;SDS011;10743;52.160;20.910;2023-09-19T07:27:57;26.90;;;9.82;;
21170;SDS011;10743;52.160;20.910;2023-09-19T07:30:28;26.17;;;10.07;;
21170;SDS011;10743;52.160;20.910;2023-09-19T07:32:56;22.20;;;9.80;;
21170;SDS011;10743;52.160;20.910;2023-09-19T07:35:23;25.92;;;10.23;;
21170;SDS011;10743;52.160;20.910;2023-09-19T07:37:50;25.35;;;9.40;;
21170;SDS011;10743;52.160;20.910;2023-09-19T07:40:21;25.45;;;9.75;;
21170;SDS011;10743;52.160;20.910;2023-09-19T07:42:48;31.55;;;11.63;;
21170;SDS011;10743;52.160;20.910;2023-09-19T07:45:16;30.92;;;11.10;;
21170;SDS011;10743;52.160;20.910;2023-09-19T07:47:44;27.80;;;11.13;;
21170;SDS011;10743;52.160;20.910;2023-09-19T07:50:13;26.27;;;10.48;;
21170;SDS011;10743;52.160;20.910;2023-09-19T07:52:46;29.58;;;11.70;;
21170;SDS011;10743;52.160;20.910;2023-09-19T07:55:14;23.83;;;10.70;;
21170;SDS011;10743;52.160;20.910;2023-09-19T07:57:46;31.70;;;11.27;;
21170;SDS011;10743;52.160;20.910;2023-09-19T08:00:13;30.77;;;11.05;;
21170;SDS011;10743;52.160;20.910;2023-09-19T08:02:41;26.83;;;11.52;;
21170;SDS011;10743;52.160;20.910;2023-09-19T08:05:10;25.63;;;10.82;;
21170;SDS011;10743;52.160;20.910;2023-09-19T08:07:39;26.58;;;10.82;;
21170;SDS011;10743;52.160;20.910;2023-09-19T08:10:09;25.70;;;11.20;;
21170;SDS011;10743;52.160;20.910;2023-09-19T08:12:39;26.73;;;10.93;;
21170;SDS011;10743;52.160;20.910;2023-09-19T08:15:19;28.48;;;10.75;;
21170;SDS011;10743;52.160;20.910;2023-09-19T08:17:47;24.42;;;10.40;;
21170;SDS011;10743;52.160;20.910;2023-09-19T08:20:15;28.65;;;11.20;;
21170;SDS011;10743;52.160;20.910;2023-09-19T08:22:47;26.25;;;10.23;;
21170;SDS011;10743;52.160;20.910;2023-09-19T08:25:21;25.02;;;10.23;;
21170;SDS011;10743;52.160;20.910;2023-09-19T08:27:49;25.60;;;10.38;;
21170;SDS011;10743;52.160;20.910;2023-09-19T08:30:18;20.35;;;9.15;;
21170;SDS011;10743;52.160;20.910;2023-09-19T08:32:51;25.95;;;10.05;;
21170;SDS011;10743;52.160;20.910;2023-09-19T08:35:25;25.38;;;10.05;;
21170;SDS011;10743;52.160;20.910;2023-09-19T08:37:53;19.88;;;9.50;;
21170;SDS011;10743;52.160;20.910;2023-09-19T08:40:22;27.75;;;10.15;;
21170;SDS011;10743;52.160;20.910;2023-09-19T08:42:50;30.38;;;10.32;;
21170;SDS011;10743;52.160;20.910;2023-09-19T08:45:22;26.88;;;9.88;;
21170;SDS011;10743;52.160;20.910;2023-09-19T08:53:31;24.90;;;11.38;;
21170;SDS011;10743;52.160;20.910;2023-09-19T08:56:01;26.73;;;10.52;;
21170;SDS011;10743;52.160;20.910;2023-09-19T08:58:34;25.77;;;10.50;;
21170;SDS011;10743;52.160;20.910;2023-09-19T09:01:20;24.40;;;9.85;;
21170;SDS011;10743;52.160;20.910;2023-09-19T09:03:52;28.25;;;9.88;;
21170;SDS011;10743;52.160;20.910;2023-09-19T09:06:21;19.23;;;9.63;;
21170;SDS011;10743;52.160;20.910;2023-09-19T09:08:52;18.33;;;10.00;;
21170;SDS011;10743;52.160;20.910;2023-09-19T09:11:20;19.25;;;9.40;;
21170;SDS011;10743;52.160;20.910;2023-09-19T09:13:48;18.10;;;8.73;;
21170;SDS011;10743;52.160;20.910;2023-09-19T09:16:15;15.48;;;8.43;;
21170;SDS011;10743;52.160;20.910;2023-09-19T09:18:46;17.90;;;8.48;;
21170;SDS011;10743;52.160;20.910;2023-09-19T09:21:20;19.88;;;8.88;;
21170;SDS011;10743;52.160;20.910;2023-09-19T09:23:52;27.52;;;10.88;;
21170;SDS011;10743;52.160;20.910;2023-09-19T09:29:13;24.25;;;9.40;;
21170;SDS011;10743;52.160;20.910;2023-09-19T09:31:46;22.63;;;9.70;;
21170;SDS011;10743;52.160;20.910;2023-09-19T09:34:14;27.88;;;10.80;;
21170;SDS011;10743;52.160;20.910;2023-09-19T09:36:42;21.90;;;9.52;;
21170;SDS011;10743;52.160;20.910;2023-09-19T09:39:27;20.35;;;7.88;;
21170;SDS011;10743;52.160;20.910;2023-09-19T09:41:58;24.70;;;8.30;;
21170;SDS011;10743;52.160;20.910;2023-09-19T09:44:25;22.73;;;9.07;;
21170;SDS011;10743;52.160;20.910;2023-09-19T09:46:58;22.33;;;9.23;;
21170;SDS011;10743;52.160;20.910;2023-09-19T09:49:47;16.02;;;8.07;;
21170;SDS011;10743;52.160;20.910;2023-09-19T09:52:21;23.98;;;8.75;;
21170;SDS011;10743;52.160;20.910;2023-09-19T09:55:01;22.05;;;9.90;;
21170;SDS011;10743;52.160;20.910;2023-09-19T09:57:32;23.92;;;10.02;;
21170;SDS011;10743;52.160;20.910;2023-09-19T10:00:00;16.67;;;9.32;;
21170;SDS011;10743;52.160;20.910;2023-09-19T10:02:38;21.63;;;9.07;;
21170;SDS011;10743;52.160;20.910;2023-09-19T10:05:27;24.08;;;9.63;;
21170;SDS011;10743;52.160;20.910;2023-09-19T10:07:55;17.30;;;8.88;;
21170;SDS011;10743;52.160;20.910;2023-09-19T10:13:08;18.85;;;7.40;;
21170;SDS011;10743;52.160;20.910;2023-09-19T10:15:47;19.63;;;7.60;;
21170;SDS011;10743;52.160;20.910;2023-09-19T10:18:22;17.08;;;6.80;;
21170;SDS011;10743;52.160;20.910;2023-09-19T10:20:51;16.52;;;7.35;;
21170;SDS011;10743;52.160;20.910;2023-09-19T10:23:19;16.70;;;7.60;;
21170;SDS011;10743;52.160;20.910;2023-09-19T10:25:52;23.42;;;8.52;;
21170;SDS011;10743;52.160;20.910;2023-09-19T10:28:20;26.45;;;9.27;;
21170;SDS011;10743;52.160;20.910;2023-09-19T10:30:49;22.17;;;7.63;;
21170;SDS011;10743;52.160;20.910;2023-09-19T10:33:19;22.90;;;7.85;;
21170;SDS011;10743;52.160;20.910;2023-09-19T10:35:56;19.25;;;7.03;;
21170;SDS011;10743;52.160;20.910;2023-09-19T10:38:26;18.30;;;7.38;;
21170;SDS011;10743;52.160;20.910;2023-09-19T10:40:56;21.92;;;7.93;;
21170;SDS011;10743;52.160;20.910;2023-09-19T10:43:31;21.77;;;7.57;;
21170;SDS011;10743;52.160;20.910;2023-09-19T10:46:06;17.25;;;6.55;;
21170;SDS011;10743;52.160;20.910;2023-09-19T10:48:37;12.43;;;5.80;;
21170;SDS011;10743;52.160;20.910;2023-09-19T10:56:19;15.55;;;6.20;;
21170;SDS011;10743;52.160;20.910;2023-09-19T10:59:11;13.07;;;5.72;;
21170;SDS011;10743;52.160;20.910;2023-09-19T11:01:51;11.52;;;5.68;;
21170;SDS011;10743;52.160;20.910;2023-09-19T11:04:24;15.25;;;6.07;;
21170;SDS011;10743;52.160;20.910;2023-09-19T11:07:16;16.75;;;6.45;;
21170;SDS011;10743;52.160;20.910;2023-09-19T11:16:02;21.02;;;6.20;;
21170;SDS011;10743;52.160;20.910;2023-09-19T11:26:48;22.60;;;6.00;;
21170;SDS011;10743;52.160;20.910;2023-09-19T11:29:29;28.77;;;7.28;;
21170;SDS011;10743;52.160;20.910;2023-09-19T11:31:57;16.60;;;5.57;;
21170;SDS011;10743;52.160;20.910;2023-09-19T11:48:18;19.98;;;5.40;;
21170;SDS011;10743;52.160;20.910;2023-09-19T11:50:46;17.95;;;5.03;;
21170;SDS011;10743;52.160;20.910;2023-09-19T11:53:14;26.85;;;5.60;;
21170;SDS011;10743;52.160;20.910;2023-09-19T11:55:42;17.95;;;4.80;;
21170;SDS011;10743;52.160;20.910;2023-09-19T11:58:10;21.02;;;5.20;;
21170;SDS011;10743;52.160;20.910;2023-09-19T12:00:40;18.50;;;4.78;;
21170;SDS011;10743;52.160;20.910;2023-09-19T12:03:11;17.42;;;4.65;;
21170;SDS011;10743;52.160;20.910;2023-09-19T12:05:40;18.70;;;5.18;;
21170;SDS011;10743;52.160;20.910;2023-09-19T12:08:09;18.98;;;5.05;;
21170;SDS011;10743;52.160;20.910;2023-09-19T12:10:47;17.75;;;4.55;;
21170;SDS011;10743;52.160;20.910;2023-09-19T12:13:18;17.95;;;4.70;;
21170;SDS011;10743;52.160;20.910;2023-09-19T12:15:47;16.13;;;4.90;;
21170;SDS011;10743;52.160;20.910;2023-09-19T12:18:30;17.00;;;5.32;;
21170;SDS011;10743;52.160;20.910;2023-09-19T12:20:58;15.93;;;4.78;;
21170;SDS011;10743;52.160;20.910;2023-09-19T12:23:25;16.60;;;5.10;;
21170;SDS011;10743;52.160;20.910;2023-09-19T12:25:52;17.30;;;5.03;;
21170;SDS011;10743;52.160;20.910;2023-09-19T12:28:25;18.77;;;5.10;;
21170;SDS011;10743;52.160;20.910;2023-09-19T12:31:05;12.80;;;4.63;;
21170;SDS011;10743;52.160;20.910;2023-09-19T12:33:34;18.45;;;5.15;;
21170;SDS011;10743;52.160;20.910;2023-09-19T12:36:19;18.25;;;5.18;;
21170;SDS011;10743;52.160;20.910;2023-09-19T12:38:55;14.32;;;4.80;;
21170;SDS011;10743;52.160;20.910;2023-09-19T12:41:25;25.40;;;5.93;;
21170;SDS011;10743;52.160;20.910;2023-09-19T12:43:53;16.42;;;5.28;;
21170;SDS011;10743;52.160;20.910;2023-09-19T12:46:21;17.13;;;5.28;;
21170;SDS011;10743;52.160;20.910;2023-09-19T12:51:45;19.65;;;5.38;;
21170;SDS011;10743;52.160;20.910;2023-09-19T12:54:14;17.42;;;5.57;;
21170;SDS011;10743;52.160;20.910;2023-09-19T12:56:43;21.35;;;5.90;;
21170;SDS011;10743;52.160;20.910;2023-09-19T12:59:15;17.88;;;5.40;;
21170;SDS011;10743;52.160;20.910;2023-09-19T13:01:43;22.33;;;6.20;;
21170;SDS011;10743;52.160;20.910;2023-09-19T13:04:15;16.65;;;5.15;;
21170;SDS011;10743;52.160;20.910;2023-09-19T13:06:59;15.77;;;5.40;;
21170;SDS011;10743;52.160;20.910;2023-09-19T13:09:31;17.13;;;5.28;;
21170;SDS011;10743;52.160;20.910;2023-09-19T13:12:02;19.10;;;5.65;;
21170;SDS011;10743;52.160;20.910;2023-09-19T13:14:30;22.73;;;5.90;;
21170;SDS011;10743;52.160;20.910;2023-09-19T13:17:07;16.38;;;5.30;;
21170;SDS011;10743;52.160;20.910;2023-09-19T13:19:46;22.52;;;5.85;;
21170;SDS011;10743;52.160;20.910;2023-09-19T13:25:33;17.92;;;5.47;;
21170;SDS011;10743;52.160;20.910;2023-09-19T13:28:01;17.95;;;5.60;;
21170;SDS011;10743;52.160;20.910;2023-09-19T13:30:31;19.08;;;5.80;;
21170;SDS011;10743;52.160;20.910;2023-09-19T13:33:08;20.58;;;6.45;;
21170;SDS011;10743;52.160;20.910;2023-09-19T13:35:38;17.25;;;5.78;;
21170;SDS011;10743;52.160;20.910;2023-09-19T13:38:07;22.05;;;6.05;;
21170;SDS011;10743;52.160;20.910;2023-09-19T13:40:38;22.38;;;6.65;;
21170;SDS011;10743;52.160;20.910;2023-09-19T13:43:08;19.73;;;6.03;;
21170;SDS011;10743;52.160;20.910;2023-09-19T13:45:37;17.45;;;6.05;;
21170;SDS011;10743;52.160;20.910;2023-09-19T13:48:04;16.52;;;6.07;;
21170;SDS011;10743;52.160;20.910;2023-09-19T13:50:32;17.17;;;6.28;;
21170;SDS011;10743;52.160;20.910;2023-09-19T13:52:59;14.40;;;5.93;;
21170;SDS011;10743;52.160;20.910;2023-09-19T13:55:27;18.52;;;5.78;;
21170;SDS011;10743;52.160;20.910;2023-09-19T13:57:54;16.85;;;6.25;;
21170;SDS011;10743;52.160;20.910;2023-09-19T14:00:22;16.60;;;6.13;;
21170;SDS011;10743;52.160;20.910;2023-09-19T14:02:49;19.30;;;6.22;;
21170;SDS011;10743;52.160;20.910;2023-09-19T14:05:18;26.63;;;6.90;;
21170;SDS011;10743;52.160;20.910;2023-09-19T14:07:47;18.27;;;6.35;;
21170;SDS011;10743;52.160;20.910;2023-09-19T14:10:15;20.75;;;6.60;;
21170;SDS011;10743;52.160;20.910;2023-09-19T14:12:44;19.30;;;6.95;;
21170;SDS011;10743;52.160;20.910;2023-09-19T14:15:12;26.23;;;7.68;;
21170;SDS011;10743;52.160;20.910;2023-09-19T14:17:39;15.10;;;6.72;;
21170;SDS011;10743;52.160;20.910;2023-09-19T14:20:11;19.85;;;7.05;;
21170;SDS011;10743;52.160;20.910;2023-09-19T14:22:39;13.32;;;6.60;;
21170;SDS011;10743;52.160;20.910;2023-09-19T14:25:06;15.68;;;6.95;;
21170;SDS011;10743;52.160;20.910;2023-09-19T14:27:33;19.45;;;7.15;;
21170;SDS011;10743;52.160;20.910;2023-09-19T14:30:00;16.52;;;6.30;;
21170;SDS011;10743;52.160;20.910;2023-09-19T14:32:27;15.98;;;5.68;;
21170;SDS011;10743;52.160;20.910;2023-09-19T14:34:54;13.93;;;5.38;;
21170;SDS011;10743;52.160;20.910;2023-09-19T14:37:22;15.38;;;5.43;;
21170;SDS011;10743;52.160;20.910;2023-09-19T14:39:49;15.07;;;5.43;;
21170;SDS011;10743;52.160;20.910;2023-09-19T14:42:16;18.15;;;5.90;;
21170;SDS011;10743;52.160;20.910;2023-09-19T14:44:44;15.30;;;5.30;;
21170;SDS011;10743;52.160;20.910;2023-09-19T14:47:13;17.52;;;5.50;;
21170;SDS011;10743;52.160;20.910;2023-09-19T14:49:41;12.52;;;4.80;;
21170;SDS011;10743;52.160;20.910;2023-09-19T14:52:09;16.52;;;5.78;;
21170;SDS011;10743;52.160;20.910;2023-09-19T14:54:42;17.05;;;6.68;;
21170;SDS011;10743;52.160;20.910;2023-09-19T14:57:09;21.45;;;6.65;;
21170;SDS011;10743;52.160;20.910;2023-09-19T14:59:36;24.17;;;7.72;;
21170;SDS011;10743;52.160;20.910;2023-09-19T15:02:04;19.13;;;6.50;;
21170;SDS011;10743;52.160;20.910;2023-09-19T15:04:32;19.25;;;5.40;;
21170;SDS011;10743;52.160;20.910;2023-09-19T15:07:09;13.85;;;4.68;;
21170;SDS011;10743;52.160;20.910;2023-09-19T15:09:37;21.75;;;5.75;;
21170;SDS011;10743;52.160;20.910;2023-09-19T15:12:04;18.27;;;5.47;;
21170;SDS011;10743;52.160;20.910;2023-09-19T15:14:32;17.27;;;5.22;;
21170;SDS011;10743;52.160;20.910;2023-09-19T15:16:59;18.98;;;5.30;;
21170;SDS011;10743;52.160;20.910;2023-09-19T15:19:26;17.35;;;5.53;;
21170;SDS011;10743;52.160;20.910;2023-09-19T15:21:53;16.33;;;5.25;;
21170;SDS011;10743;52.160;20.910;2023-09-19T15:24:20;19.73;;;5.15;;
21170;SDS011;10743;52.160;20.910;2023-09-19T15:26:47;18.67;;;5.40;;
21170;SDS011;10743;52.160;20.910;2023-09-19T15:29:15;19.92;;;6.07;;
21170;SDS011;10743;52.160;20.910;2023-09-19T15:31:42;20.90;;;5.63;;
21170;SDS011;10743;52.160;20.910;2023-09-19T15:34:09;20.42;;;6.10;;
21170;SDS011;10743;52.160;20.910;2023-09-19T15:36:40;15.35;;;5.40;;
21170;SDS011;10743;52.160;20.910;2023-09-19T15:39:08;15.35;;;5.00;;
21170;SDS011;10743;52.160;20.910;2023-09-19T15:41:41;21.35;;;5.85;;
21170;SDS011;10743;52.160;20.910;2023-09-19T15:44:13;15.35;;;4.90;;
21170;SDS011;10743;52.160;20.910;2023-09-19T15:46:42;16.77;;;5.68;;
21170;SDS011;10743;52.160;20.910;2023-09-19T15:49:11;22.15;;;7.57;;
21170;SDS011;10743;52.160;20.910;2023-09-19T15:51:38;23.15;;;7.95;;